sensor_id;sensor_type;location;lat;lon;timestamp;temperature;humidity
6008;DHT22;3032;49.484;11.112;2024-01-07T00:00:59;8.30;99.90
6008;DHT22;3032;49.484;11.112;2024-01-07T00:03:25;8.40;99.90
6008;DHT22;3032;49.484;11.112;2024-01-07T00:05:51;8.40;99.90
6008;DHT22;3032;49.484;11.112;2024-01-07T00:08:17;8.40;99.90
6008;DHT22;3032;49.484;11.112;2024-01-07T00:10:42;8.40;99.90
6008;DHT22;3032;49.484;11.112;2024-01-07T00:13:08;8.40;99.90
6008;DHT22;3032;49.484;11.112;2024-01-07T00:15:33;8.40;99.90
6008;DHT22;3032;49.484;11.112;2024-01-07T00:17:59;8.30;99.90
6008;DHT22;3032;49.484;11.112;2024-01-07T00:20:24;8.30;99.90
6008;DHT22;3032;49.484;11.112;2024-01-07T00:22:50;8.30;99.90
6008;DHT22;3032;49.484;11.112;2024-01-07T00:25:15;8.20;99.90
6008;DHT22;3032;49.484;11.112;2024-01-07T00:27:41;8.10;99.90
6008;DHT22;3032;49.484;11.112;2024-01-07T00:30:07;8.20;99.90
6008;DHT22;3032;49.484;11.112;2024-01-07T00:32:32;8.30;99.90
6008;DHT22;3032;49.484;11.112;2024-01-07T00:34:58;8.30;99.90
6008;DHT22;3032;49.484;11.112;2024-01-07T00:37:23;8.30;99.90
6008;DHT22;3032;49.484;11.112;2024-01-07T00:39:49;8.30;99.90
6008;DHT22;3032;49.484;11.112;2024-01-07T00:42:14;8.30;99.90
6008;DHT22;3032;49.484;11.112;2024-01-07T00:44:40;8.30;99.90
6008;DHT22;3032;49.484;11.112;2024-01-07T00:47:05;8.20;99.90
6008;DHT22;3032;49.484;11.112;2024-01-07T00:49:31;8.30;99.90
6008;DHT22;3032;49.484;11.112;2024-01-07T00:51:56;8.30;99.90
6008;DHT22;3032;49.484;11.112;2024-01-07T00:54:22;8.20;99.90
6008;DHT22;3032;49.484;11.112;2024-01-07T00:56:47;8.20;99.90
6008;DHT22;3032;49.484;11.112;2024-01-07T00:59:13;8.20;99.90
6008;DHT22;3032;49.484;11.112;2024-01-07T01:01:38;8.20;99.90
6008;DHT22;3032;49.484;11.112;2024-01-07T01:04:04;8.20;99.90
6008;DHT22;3032;49.484;11.112;2024-01-07T01:06:29;8.20;99.90
6008;DHT22;3032;49.484;11.112;2024-01-07T01:08:55;8.30;99.90
6008;DHT22;3032;49.484;11.112;2024-01-07T01:11:20;8.30;99.90
6008;DHT22;3032;49.484;11.112;2024-01-07T01:13:46;8.20;99.90
6008;DHT22;3032;49.484;11.112;2024-01-07T01:16:11;8.20;99.90
6008;DHT22;3032;49.484;11.112;2024-01-07T01:18:37;8.20;99.90
6008;DHT22;3032;49.484;11.112;2024-01-07T01:21:03;8.10;99.90
6008;DHT22;3032;49.484;11.112;2024-01-07T01:23:29;8.20;99.90
6008;DHT22;3032;49.484;11.112;2024-01-07T01:25:54;8.10;99.90
6008;DHT22;3032;49.484;11.112;2024-01-07T01:28:20;8.10;99.90
6008;DHT22;3032;49.484;11.112;2024-01-07T01:30:45;8.10;99.90
6008;DHT22;3032;49.484;11.112;2024-01-07T01:33:11;8.10;99.90
6008;DHT22;3032;49.484;11.112;2024-01-07T01:35:36;8.10;99.90
6008;DHT22;3032;49.484;11.112;2024-01-07T01:38:02;7.90;99.90
6008;DHT22;3032;49.484;11.112;2024-01-07T01:40:28;7.90;99.90
6008;DHT22;3032;49.484;11.112;2024-01-07T01:42:53;8.00;99.90
6008;DHT22;3032;49.484;11.112;2024-01-07T01:45:19;8.10;99.90
6008;DHT22;3032;49.484;11.112;2024-01-07T01:47:46;8.10;99.90
6008;DHT22;3032;49.484;11.112;2024-01-07T01:50:13;8.10;99.90
6008;DHT22;3032;49.484;11.112;2024-01-07T01:52:40;8.00;99.90
6008;DHT22;3032;49.484;11.112;2024-01-07T01:55:05;8.00;99.90
6008;DHT22;3032;49.484;11.112;2024-01-07T01:57:35;8.00;99.90
6008;DHT22;3032;49.484;11.112;2024-01-07T02:00:03;8.00;99.90
6008;DHT22;3032;49.484;11.112;2024-01-07T02:02:30;8.00;99.90
6008;DHT22;3032;49.484;11.112;2024-01-07T02:04:57;7.90;99.90
6008;DHT22;3032;49.484;11.112;2024-01-07T02:07:24;7.80;99.90
6008;DHT22;3032;49.484;11.112;2024-01-07T02:09:50;7.70;99.90
6008;DHT22;3032;49.484;11.112;2024-01-07T02:12:15;7.70;99.90
6008;DHT22;3032;49.484;11.112;2024-01-07T02:14:41;7.70;99.90
6008;DHT22;3032;49.484;11.112;2024-01-07T02:17:07;7.70;99.90
6008;DHT22;3032;49.484;11.112;2024-01-07T02:19:32;7.80;99.90
6008;DHT22;3032;49.484;11.112;2024-01-07T02:21:58;7.80;99.90
6008;DHT22;3032;49.484;11.112;2024-01-07T02:24:23;7.70;99.90
6008;DHT22;3032;49.484;11.112;2024-01-07T02:26:50;7.80;99.90
6008;DHT22;3032;49.484;11.112;2024-01-07T02:29:15;7.70;99.90
6008;DHT22;3032;49.484;11.112;2024-01-07T02:31:41;7.70;99.90
6008;DHT22;3032;49.484;11.112;2024-01-07T02:34:09;7.70;99.90
6008;DHT22;3032;49.484;11.112;2024-01-07T02:36:34;7.80;99.90
6008;DHT22;3032;49.484;11.112;2024-01-07T02:39:00;7.70;99.90
6008;DHT22;3032;49.484;11.112;2024-01-07T02:41:25;7.60;99.90
6008;DHT22;3032;49.484;11.112;2024-01-07T02:43:52;7.40;99.90
6008;DHT22;3032;49.484;11.112;2024-01-07T02:46:17;7.10;99.90
6008;DHT22;3032;49.484;11.112;2024-01-07T02:48:43;6.90;99.90
6008;DHT22;3032;49.484;11.112;2024-01-07T02:51:09;6.90;99.90
6008;DHT22;3032;49.484;11.112;2024-01-07T02:53:34;6.90;99.90
6008;DHT22;3032;49.484;11.112;2024-01-07T02:56:00;6.80;99.90
6008;DHT22;3032;49.484;11.112;2024-01-07T02:58:25;6.90;99.90
6008;DHT22;3032;49.484;11.112;2024-01-07T03:00:51;6.90;99.90
6008;DHT22;3032;49.484;11.112;2024-01-07T03:03:16;6.90;99.90
6008;DHT22;3032;49.484;11.112;2024-01-07T03:05:42;6.50;99.90
6008;DHT22;3032;49.484;11.112;2024-01-07T03:08:08;6.10;99.90
6008;DHT22;3032;49.484;11.112;2024-01-07T03:10:33;5.90;99.90
6008;DHT22;3032;49.484;11.112;2024-01-07T03:13:00;5.70;99.90
6008;DHT22;3032;49.484;11.112;2024-01-07T03:15:26;5.50;99.90
6008;DHT22;3032;49.484;11.112;2024-01-07T03:17:51;5.60;99.90
6008;DHT22;3032;49.484;11.112;2024-01-07T03:20:17;5.50;99.90
6008;DHT22;3032;49.484;11.112;2024-01-07T03:22:42;5.20;99.90
6008;DHT22;3032;49.484;11.112;2024-01-07T03:25:08;5.40;99.90
6008;DHT22;3032;49.484;11.112;2024-01-07T03:27:34;5.60;99.90
6008;DHT22;3032;49.484;11.112;2024-01-07T03:29:59;5.80;99.90
6008;DHT22;3032;49.484;11.112;2024-01-07T03:32:25;5.80;99.90
6008;DHT22;3032;49.484;11.112;2024-01-07T03:34:50;5.90;99.90
6008;DHT22;3032;49.484;11.112;2024-01-07T03:37:16;6.10;99.90
6008;DHT22;3032;49.484;11.112;2024-01-07T03:39:43;6.10;99.90
6008;DHT22;3032;49.484;11.112;2024-01-07T03:42:09;6.00;99.90
6008;DHT22;3032;49.484;11.112;2024-01-07T03:44:37;6.30;99.90
6008;DHT22;3032;49.484;11.112;2024-01-07T03:47:04;6.20;99.90
6008;DHT22;3032;49.484;11.112;2024-01-07T03:49:31;6.10;99.90
6008;DHT22;3032;49.484;11.112;2024-01-07T03:51:56;5.90;99.90
6008;DHT22;3032;49.484;11.112;2024-01-07T03:54:22;5.90;99.90
6008;DHT22;3032;49.484;11.112;2024-01-07T03:56:47;6.10;99.90
6008;DHT22;3032;49.484;11.112;2024-01-07T03:59:13;6.30;99.90
6008;DHT22;3032;49.484;11.112;2024-01-07T04:01:38;6.30;99.90
6008;DHT22;3032;49.484;11.112;2024-01-07T04:04:04;6.20;99.90
6008;DHT22;3032;49.484;11.112;2024-01-07T04:06:29;5.80;99.90
6008;DHT22;3032;49.484;11.112;2024-01-07T04:08:55;5.80;99.90
6008;DHT22;3032;49.484;11.112;2024-01-07T04:11:21;5.70;99.90
6008;DHT22;3032;49.484;11.112;2024-01-07T04:13:46;5.70;99.90
6008;DHT22;3032;49.484;11.112;2024-01-07T04:16:18;5.90;99.90
6008;DHT22;3032;49.484;11.112;2024-01-07T04:18:45;6.00;99.90
6008;DHT22;3032;49.484;11.112;2024-01-07T04:21:11;5.70;99.90
6008;DHT22;3032;49.484;11.112;2024-01-07T04:23:38;5.40;99.90
6008;DHT22;3032;49.484;11.112;2024-01-07T04:26:04;5.50;99.90
6008;DHT22;3032;49.484;11.112;2024-01-07T04:28:30;5.40;99.90
6008;DHT22;3032;49.484;11.112;2024-01-07T04:30:55;5.30;99.90
6008;DHT22;3032;49.484;11.112;2024-01-07T04:33:21;5.00;99.90
6008;DHT22;3032;49.484;11.112;2024-01-07T04:35:46;5.10;99.90
6008;DHT22;3032;49.484;11.112;2024-01-07T04:38:12;5.10;99.90
6008;DHT22;3032;49.484;11.112;2024-01-07T04:40:37;5.00;99.90
6008;DHT22;3032;49.484;11.112;2024-01-07T04:43:03;5.10;99.90
6008;DHT22;3032;49.484;11.112;2024-01-07T04:45:28;5.20;99.90
6008;DHT22;3032;49.484;11.112;2024-01-07T04:47:54;5.10;99.90
6008;DHT22;3032;49.484;11.112;2024-01-07T04:50:19;5.20;99.90
6008;DHT22;3032;49.484;11.112;2024-01-07T04:52:48;5.30;99.90
6008;DHT22;3032;49.484;11.112;2024-01-07T04:55:13;5.60;99.90
6008;DHT22;3032;49.484;11.112;2024-01-07T04:57:39;5.50;99.90
6008;DHT22;3032;49.484;11.112;2024-01-07T05:00:05;5.60;99.90
6008;DHT22;3032;49.484;11.112;2024-01-07T05:02:31;5.60;99.90
6008;DHT22;3032;49.484;11.112;2024-01-07T05:04:57;5.80;99.90
6008;DHT22;3032;49.484;11.112;2024-01-07T05:07:22;5.80;99.90
6008;DHT22;3032;49.484;11.112;2024-01-07T05:09:48;5.70;99.90
6008;DHT22;3032;49.484;11.112;2024-01-07T05:12:13;5.80;99.90
6008;DHT22;3032;49.484;11.112;2024-01-07T05:14:39;5.90;99.90
6008;DHT22;3032;49.484;11.112;2024-01-07T05:17:06;5.40;99.90
6008;DHT22;3032;49.484;11.112;2024-01-07T05:19:31;5.20;99.90
6008;DHT22;3032;49.484;11.112;2024-01-07T05:21:57;5.10;99.90
6008;DHT22;3032;49.484;11.112;2024-01-07T05:24:23;5.00;99.90
6008;DHT22;3032;49.484;11.112;2024-01-07T05:26:48;5.00;99.90
6008;DHT22;3032;49.484;11.112;2024-01-07T05:29:14;4.90;99.90
6008;DHT22;3032;49.484;11.112;2024-01-07T05:31:40;4.80;99.90
6008;DHT22;3032;49.484;11.112;2024-01-07T05:34:05;4.80;99.90
6008;DHT22;3032;49.484;11.112;2024-01-07T05:36:31;4.60;99.90
6008;DHT22;3032;49.484;11.112;2024-01-07T05:38:57;4.60;99.90
6008;DHT22;3032;49.484;11.112;2024-01-07T05:41:22;4.60;99.90
6008;DHT22;3032;49.484;11.112;2024-01-07T05:43:48;4.50;99.90
6008;DHT22;3032;49.484;11.112;2024-01-07T05:46:13;4.40;99.90
6008;DHT22;3032;49.484;11.112;2024-01-07T05:48:48;4.60;99.90
6008;DHT22;3032;49.484;11.112;2024-01-07T05:51:14;4.80;99.90
6008;DHT22;3032;49.484;11.112;2024-01-07T05:53:41;4.90;99.90
6008;DHT22;3032;49.484;11.112;2024-01-07T05:56:07;4.90;99.90
6008;DHT22;3032;49.484;11.112;2024-01-07T05:58:33;5.10;99.90
6008;DHT22;3032;49.484;11.112;2024-01-07T06:00:59;5.10;99.90
6008;DHT22;3032;49.484;11.112;2024-01-07T06:03:25;5.10;99.90
6008;DHT22;3032;49.484;11.112;2024-01-07T06:05:51;5.10;99.90
6008;DHT22;3032;49.484;11.112;2024-01-07T06:08:17;4.90;99.90
6008;DHT22;3032;49.484;11.112;2024-01-07T06:10:43;4.70;99.90
6008;DHT22;3032;49.484;11.112;2024-01-07T06:13:09;4.70;99.90
6008;DHT22;3032;49.484;11.112;2024-01-07T06:15:34;4.90;99.90
6008;DHT22;3032;49.484;11.112;2024-01-07T06:18:00;5.10;99.90
6008;DHT22;3032;49.484;11.112;2024-01-07T06:20:26;5.00;99.90
6008;DHT22;3032;49.484;11.112;2024-01-07T06:22:51;4.60;99.90
6008;DHT22;3032;49.484;11.112;2024-01-07T06:25:17;4.50;99.90
6008;DHT22;3032;49.484;11.112;2024-01-07T06:27:42;4.60;99.90
6008;DHT22;3032;49.484;11.112;2024-01-07T06:30:08;4.80;99.90
6008;DHT22;3032;49.484;11.112;2024-01-07T06:32:34;4.90;99.90
6008;DHT22;3032;49.484;11.112;2024-01-07T06:35:01;4.60;99.90
6008;DHT22;3032;49.484;11.112;2024-01-07T06:37:28;4.40;99.90
6008;DHT22;3032;49.484;11.112;2024-01-07T06:39:55;4.50;99.90
6008;DHT22;3032;49.484;11.112;2024-01-07T06:42:21;4.50;99.90
6008;DHT22;3032;49.484;11.112;2024-01-07T06:44:46;4.70;99.90
6008;DHT22;3032;49.484;11.112;2024-01-07T06:47:12;4.90;99.90
6008;DHT22;3032;49.484;11.112;2024-01-07T06:49:37;4.90;99.90
6008;DHT22;3032;49.484;11.112;2024-01-07T06:52:04;4.60;99.90
6008;DHT22;3032;49.484;11.112;2024-01-07T06:54:30;4.40;99.90
6008;DHT22;3032;49.484;11.112;2024-01-07T06:56:56;4.60;99.90
6008;DHT22;3032;49.484;11.112;2024-01-07T06:59:21;4.70;99.90
6008;DHT22;3032;49.484;11.112;2024-01-07T07:01:47;4.50;99.90
6008;DHT22;3032;49.484;11.112;2024-01-07T07:04:12;4.40;99.90
6008;DHT22;3032;49.484;11.112;2024-01-07T07:06:38;4.20;99.90
6008;DHT22;3032;49.484;11.112;2024-01-07T07:09:03;4.20;99.90
6008;DHT22;3032;49.484;11.112;2024-01-07T07:11:29;4.30;99.90
6008;DHT22;3032;49.484;11.112;2024-01-07T07:13:54;4.40;99.90
6008;DHT22;3032;49.484;11.112;2024-01-07T07:16:20;4.40;99.90
6008;DHT22;3032;49.484;11.112;2024-01-07T07:18:45;4.50;99.90
6008;DHT22;3032;49.484;11.112;2024-01-07T07:21:11;4.40;99.90
6008;DHT22;3032;49.484;11.112;2024-01-07T07:23:36;4.50;99.90
6008;DHT22;3032;49.484;11.112;2024-01-07T07:26:02;4.50;99.90
6008;DHT22;3032;49.484;11.112;2024-01-07T07:28:28;4.30;99.90
6008;DHT22;3032;49.484;11.112;2024-01-07T07:30:53;4.10;99.90
6008;DHT22;3032;49.484;11.112;2024-01-07T07:33:19;4.20;99.90
6008;DHT22;3032;49.484;11.112;2024-01-07T07:35:44;4.40;99.90
6008;DHT22;3032;49.484;11.112;2024-01-07T07:38:10;4.50;99.90
6008;DHT22;3032;49.484;11.112;2024-01-07T07:40:36;4.10;99.90
6008;DHT22;3032;49.484;11.112;2024-01-07T07:43:01;4.10;99.90
6008;DHT22;3032;49.484;11.112;2024-01-07T07:45:27;4.10;99.90
6008;DHT22;3032;49.484;11.112;2024-01-07T07:47:53;4.00;99.90
6008;DHT22;3032;49.484;11.112;2024-01-07T07:50:18;4.30;99.90
6008;DHT22;3032;49.484;11.112;2024-01-07T07:52:44;4.60;99.90
6008;DHT22;3032;49.484;11.112;2024-01-07T07:55:10;4.40;99.90
6008;DHT22;3032;49.484;11.112;2024-01-07T07:57:36;4.40;99.90
6008;DHT22;3032;49.484;11.112;2024-01-07T08:00:06;4.30;99.90
6008;DHT22;3032;49.484;11.112;2024-01-07T08:02:32;4.30;99.90
6008;DHT22;3032;49.484;11.112;2024-01-07T08:04:58;4.00;99.90
6008;DHT22;3032;49.484;11.112;2024-01-07T08:07:24;3.90;99.90
6008;DHT22;3032;49.484;11.112;2024-01-07T08:09:50;4.00;99.90
6008;DHT22;3032;49.484;11.112;2024-01-07T08:12:16;4.20;99.90
6008;DHT22;3032;49.484;11.112;2024-01-07T08:14:41;4.30;99.90
6008;DHT22;3032;49.484;11.112;2024-01-07T08:17:07;4.10;99.90
6008;DHT22;3032;49.484;11.112;2024-01-07T08:19:33;3.90;99.90
6008;DHT22;3032;49.484;11.112;2024-01-07T08:21:59;3.60;99.90
6008;DHT22;3032;49.484;11.112;2024-01-07T08:24:25;3.40;99.90
6008;DHT22;3032;49.484;11.112;2024-01-07T08:26:50;3.60;99.90
6008;DHT22;3032;49.484;11.112;2024-01-07T08:29:17;3.70;99.90
6008;DHT22;3032;49.484;11.112;2024-01-07T08:31:42;3.90;99.90
6008;DHT22;3032;49.484;11.112;2024-01-07T08:34:08;3.70;99.90
6008;DHT22;3032;49.484;11.112;2024-01-07T08:36:34;3.60;99.90
6008;DHT22;3032;49.484;11.112;2024-01-07T08:38:59;3.60;99.90
6008;DHT22;3032;49.484;11.112;2024-01-07T08:41:26;3.80;99.90
6008;DHT22;3032;49.484;11.112;2024-01-07T08:43:51;3.90;99.90
6008;DHT22;3032;49.484;11.112;2024-01-07T08:46:20;3.80;99.90
6008;DHT22;3032;49.484;11.112;2024-01-07T08:48:45;3.40;99.90
6008;DHT22;3032;49.484;11.112;2024-01-07T08:51:11;3.10;99.90
6008;DHT22;3032;49.484;11.112;2024-01-07T08:53:36;3.10;99.90
6008;DHT22;3032;49.484;11.112;2024-01-07T08:56:02;3.10;99.90
6008;DHT22;3032;49.484;11.112;2024-01-07T08:58:28;3.30;99.90
6008;DHT22;3032;49.484;11.112;2024-01-07T09:00:53;3.40;99.90
6008;DHT22;3032;49.484;11.112;2024-01-07T09:03:19;3.10;99.90
6008;DHT22;3032;49.484;11.112;2024-01-07T09:05:44;3.00;99.90
6008;DHT22;3032;49.484;11.112;2024-01-07T09:08:10;3.10;99.90
6008;DHT22;3032;49.484;11.112;2024-01-07T09:10:36;3.00;99.90
6008;DHT22;3032;49.484;11.112;2024-01-07T09:13:03;2.80;99.90
6008;DHT22;3032;49.484;11.112;2024-01-07T09:15:29;3.10;99.90
6008;DHT22;3032;49.484;11.112;2024-01-07T09:17:54;3.40;99.90
6008;DHT22;3032;49.484;11.112;2024-01-07T09:20:20;3.30;99.90
6008;DHT22;3032;49.484;11.112;2024-01-07T09:22:45;3.00;99.90
6008;DHT22;3032;49.484;11.112;2024-01-07T09:25:11;2.80;99.90
6008;DHT22;3032;49.484;11.112;2024-01-07T09:27:36;2.70;99.90
6008;DHT22;3032;49.484;11.112;2024-01-07T09:30:02;2.60;99.90
6008;DHT22;3032;49.484;11.112;2024-01-07T09:32:28;2.70;99.90
6008;DHT22;3032;49.484;11.112;2024-01-07T09:34:53;2.80;99.90
6008;DHT22;3032;49.484;11.112;2024-01-07T09:37:19;2.80;99.90
6008;DHT22;3032;49.484;11.112;2024-01-07T09:39:45;2.90;99.90
6008;DHT22;3032;49.484;11.112;2024-01-07T09:42:15;2.80;99.90
6008;DHT22;3032;49.484;11.112;2024-01-07T09:44:41;2.60;99.90
6008;DHT22;3032;49.484;11.112;2024-01-07T09:47:11;2.70;99.90
6008;DHT22;3032;49.484;11.112;2024-01-07T09:49:37;2.90;99.90
6008;DHT22;3032;49.484;11.112;2024-01-07T09:52:04;3.10;99.90
6008;DHT22;3032;49.484;11.112;2024-01-07T09:54:30;2.80;99.90
6008;DHT22;3032;49.484;11.112;2024-01-07T09:57:01;2.90;99.90
6008;DHT22;3032;49.484;11.112;2024-01-07T09:59:30;3.10;99.90
6008;DHT22;3032;49.484;11.112;2024-01-07T10:01:56;3.30;99.90
6008;DHT22;3032;49.484;11.112;2024-01-07T10:04:23;3.40;99.90
6008;DHT22;3032;49.484;11.112;2024-01-07T10:06:49;3.00;99.90
6008;DHT22;3032;49.484;11.112;2024-01-07T10:09:18;3.10;99.90
6008;DHT22;3032;49.484;11.112;2024-01-07T10:11:44;2.70;99.90
6008;DHT22;3032;49.484;11.112;2024-01-07T10:14:10;2.70;99.90
6008;DHT22;3032;49.484;11.112;2024-01-07T10:16:36;2.70;99.90
6008;DHT22;3032;49.484;11.112;2024-01-07T10:19:02;2.50;99.90
6008;DHT22;3032;49.484;11.112;2024-01-07T10:21:27;2.50;99.90
6008;DHT22;3032;49.484;11.112;2024-01-07T10:24:11;2.70;99.90
6008;DHT22;3032;49.484;11.112;2024-01-07T10:26:38;2.90;99.90
6008;DHT22;3032;49.484;11.112;2024-01-07T10:29:04;3.10;99.90
6008;DHT22;3032;49.484;11.112;2024-01-07T10:31:32;3.40;99.90
6008;DHT22;3032;49.484;11.112;2024-01-07T10:33:57;3.00;99.90
6008;DHT22;3032;49.484;11.112;2024-01-07T10:36:24;2.90;99.90
6008;DHT22;3032;49.484;11.112;2024-01-07T10:38:50;2.70;99.90
6008;DHT22;3032;49.484;11.112;2024-01-07T10:41:18;2.80;99.90
6008;DHT22;3032;49.484;11.112;2024-01-07T10:43:46;3.00;99.90
6008;DHT22;3032;49.484;11.112;2024-01-07T10:46:14;3.30;99.90
6008;DHT22;3032;49.484;11.112;2024-01-07T10:51:16;3.40;99.90
6008;DHT22;3032;49.484;11.112;2024-01-07T10:53:43;3.20;99.90
6008;DHT22;3032;49.484;11.112;2024-01-07T10:56:12;3.10;99.90
6008;DHT22;3032;49.484;11.112;2024-01-07T10:58:39;3.00;99.90
6008;DHT22;3032;49.484;11.112;2024-01-07T11:01:06;3.10;99.90
6008;DHT22;3032;49.484;11.112;2024-01-07T11:03:38;3.20;99.90
6008;DHT22;3032;49.484;11.112;2024-01-07T11:09:02;2.70;99.90
6008;DHT22;3032;49.484;11.112;2024-01-07T11:11:41;2.90;99.90
6008;DHT22;3032;49.484;11.112;2024-01-07T11:14:39;3.00;99.90
6008;DHT22;3032;49.484;11.112;2024-01-07T11:17:08;3.20;99.90
6008;DHT22;3032;49.484;11.112;2024-01-07T11:19:35;3.20;99.90
6008;DHT22;3032;49.484;11.112;2024-01-07T11:22:26;3.20;99.90
6008;DHT22;3032;49.484;11.112;2024-01-07T11:24:56;3.40;99.90
6008;DHT22;3032;49.484;11.112;2024-01-07T11:27:26;3.40;99.90
6008;DHT22;3032;49.484;11.112;2024-01-07T11:30:18;3.40;99.90
6008;DHT22;3032;49.484;11.112;2024-01-07T11:32:45;3.20;99.90
6008;DHT22;3032;49.484;11.112;2024-01-07T11:35:14;2.80;99.90
6008;DHT22;3032;49.484;11.112;2024-01-07T11:37:41;3.00;99.90
6008;DHT22;3032;49.484;11.112;2024-01-07T11:40:07;3.20;99.90
6008;DHT22;3032;49.484;11.112;2024-01-07T11:42:33;3.10;99.90
6008;DHT22;3032;49.484;11.112;2024-01-07T11:44:59;2.90;99.90
6008;DHT22;3032;49.484;11.112;2024-01-07T11:47:24;2.90;99.90
6008;DHT22;3032;49.484;11.112;2024-01-07T11:49:53;2.90;99.90
6008;DHT22;3032;49.484;11.112;2024-01-07T11:52:19;2.70;99.90
6008;DHT22;3032;49.484;11.112;2024-01-07T11:54:45;2.70;99.90
6008;DHT22;3032;49.484;11.112;2024-01-07T11:57:13;2.50;99.90
6008;DHT22;3032;49.484;11.112;2024-01-07T11:59:38;2.50;99.90
6008;DHT22;3032;49.484;11.112;2024-01-07T12:02:04;2.70;99.90
6008;DHT22;3032;49.484;11.112;2024-01-07T12:04:31;2.80;99.90
6008;DHT22;3032;49.484;11.112;2024-01-07T12:06:57;2.70;99.90
6008;DHT22;3032;49.484;11.112;2024-01-07T12:09:23;2.60;99.90
6008;DHT22;3032;49.484;11.112;2024-01-07T12:11:49;2.50;99.90
6008;DHT22;3032;49.484;11.112;2024-01-07T12:14:14;2.80;99.90
6008;DHT22;3032;49.484;11.112;2024-01-07T12:16:40;2.70;99.90
6008;DHT22;3032;49.484;11.112;2024-01-07T12:19:08;2.60;99.90
6008;DHT22;3032;49.484;11.112;2024-01-07T12:21:34;2.60;99.90
6008;DHT22;3032;49.484;11.112;2024-01-07T12:24:00;2.80;99.90
6008;DHT22;3032;49.484;11.112;2024-01-07T12:26:27;2.60;99.90
6008;DHT22;3032;49.484;11.112;2024-01-07T12:28:57;2.70;99.90
6008;DHT22;3032;49.484;11.112;2024-01-07T12:31:28;2.90;99.90
6008;DHT22;3032;49.484;11.112;2024-01-07T12:33:53;3.00;99.90
6008;DHT22;3032;49.484;11.112;2024-01-07T12:36:22;2.70;99.90
6008;DHT22;3032;49.484;11.112;2024-01-07T12:38:49;2.70;99.90
6008;DHT22;3032;49.484;11.112;2024-01-07T12:41:15;2.80;99.90
6008;DHT22;3032;49.484;11.112;2024-01-07T12:43:40;2.80;99.90
6008;DHT22;3032;49.484;11.112;2024-01-07T12:46:06;2.80;99.90
6008;DHT22;3032;49.484;11.112;2024-01-07T12:48:32;2.80;99.90
6008;DHT22;3032;49.484;11.112;2024-01-07T12:50:58;2.90;99.90
6008;DHT22;3032;49.484;11.112;2024-01-07T12:53:23;3.10;99.90
6008;DHT22;3032;49.484;11.112;2024-01-07T12:55:49;3.20;99.90
6008;DHT22;3032;49.484;11.112;2024-01-07T12:58:15;3.40;99.90
6008;DHT22;3032;49.484;11.112;2024-01-07T13:00:45;3.40;99.90
6008;DHT22;3032;49.484;11.112;2024-01-07T13:03:11;3.20;99.90
6008;DHT22;3032;49.484;11.112;2024-01-07T13:05:46;2.50;99.90
6008;DHT22;3032;49.484;11.112;2024-01-07T13:08:13;2.30;99.90
6008;DHT22;3032;49.484;11.112;2024-01-07T13:10:39;2.30;99.90
6008;DHT22;3032;49.484;11.112;2024-01-07T13:13:05;2.40;99.90
6008;DHT22;3032;49.484;11.112;2024-01-07T13:15:31;2.80;99.90
6008;DHT22;3032;49.484;11.112;2024-01-07T13:17:57;2.90;99.90
6008;DHT22;3032;49.484;11.112;2024-01-07T13:20:23;2.80;99.90
6008;DHT22;3032;49.484;11.112;2024-01-07T13:22:49;2.60;99.90
6008;DHT22;3032;49.484;11.112;2024-01-07T13:25:15;2.50;99.90
6008;DHT22;3032;49.484;11.112;2024-01-07T13:27:40;2.50;99.90
6008;DHT22;3032;49.484;11.112;2024-01-07T13:30:07;2.40;99.90
6008;DHT22;3032;49.484;11.112;2024-01-07T13:32:33;2.40;99.90
6008;DHT22;3032;49.484;11.112;2024-01-07T13:35:05;2.70;99.90
6008;DHT22;3032;49.484;11.112;2024-01-07T13:37:31;2.80;99.90
6008;DHT22;3032;49.484;11.112;2024-01-07T13:39:56;2.60;99.90
6008;DHT22;3032;49.484;11.112;2024-01-07T13:42:22;2.70;99.90
6008;DHT22;3032;49.484;11.112;2024-01-07T13:44:48;2.70;99.90
6008;DHT22;3032;49.484;11.112;2024-01-07T13:47:13;2.70;99.90
6008;DHT22;3032;49.484;11.112;2024-01-07T13:49:40;2.40;99.90
6008;DHT22;3032;49.484;11.112;2024-01-07T13:52:06;2.70;99.90
6008;DHT22;3032;49.484;11.112;2024-01-07T13:54:31;2.60;99.90
6008;DHT22;3032;49.484;11.112;2024-01-07T13:56:57;2.60;99.90
6008;DHT22;3032;49.484;11.112;2024-01-07T13:59:23;2.80;99.90
6008;DHT22;3032;49.484;11.112;2024-01-07T14:01:49;2.80;99.90
6008;DHT22;3032;49.484;11.112;2024-01-07T14:04:15;2.70;99.90
6008;DHT22;3032;49.484;11.112;2024-01-07T14:06:41;2.30;99.90
6008;DHT22;3032;49.484;11.112;2024-01-07T14:09:06;2.30;99.90
6008;DHT22;3032;49.484;11.112;2024-01-07T14:11:34;2.30;99.90
6008;DHT22;3032;49.484;11.112;2024-01-07T14:14:00;2.10;99.90
6008;DHT22;3032;49.484;11.112;2024-01-07T14:16:27;2.20;99.90
6008;DHT22;3032;49.484;11.112;2024-01-07T14:18:53;2.10;99.90
6008;DHT22;3032;49.484;11.112;2024-01-07T14:21:18;2.00;99.90
6008;DHT22;3032;49.484;11.112;2024-01-07T14:23:44;2.00;99.90
6008;DHT22;3032;49.484;11.112;2024-01-07T14:26:10;2.10;99.90
6008;DHT22;3032;49.484;11.112;2024-01-07T14:28:35;2.20;99.90
6008;DHT22;3032;49.484;11.112;2024-01-07T14:31:01;2.20;99.90
6008;DHT22;3032;49.484;11.112;2024-01-07T14:33:27;2.10;99.90
6008;DHT22;3032;49.484;11.112;2024-01-07T14:35:53;2.40;99.90
6008;DHT22;3032;49.484;11.112;2024-01-07T14:38:18;2.80;99.90
6008;DHT22;3032;49.484;11.112;2024-01-07T14:40:44;2.80;99.90
6008;DHT22;3032;49.484;11.112;2024-01-07T14:43:12;2.70;99.90
6008;DHT22;3032;49.484;11.112;2024-01-07T14:45:38;2.30;99.90
6008;DHT22;3032;49.484;11.112;2024-01-07T14:48:04;2.30;99.90
6008;DHT22;3032;49.484;11.112;2024-01-07T14:50:29;2.10;99.90
6008;DHT22;3032;49.484;11.112;2024-01-07T14:52:55;2.30;99.90
6008;DHT22;3032;49.484;11.112;2024-01-07T14:55:20;2.30;99.90
6008;DHT22;3032;49.484;11.112;2024-01-07T14:57:46;2.30;99.90
6008;DHT22;3032;49.484;11.112;2024-01-07T15:00:12;2.40;99.90
6008;DHT22;3032;49.484;11.112;2024-01-07T15:02:38;2.50;99.90
6008;DHT22;3032;49.484;11.112;2024-01-07T15:05:05;2.40;99.90
6008;DHT22;3032;49.484;11.112;2024-01-07T15:07:30;2.00;99.90
6008;DHT22;3032;49.484;11.112;2024-01-07T15:09:56;1.70;99.90
6008;DHT22;3032;49.484;11.112;2024-01-07T15:12:21;1.50;99.90
6008;DHT22;3032;49.484;11.112;2024-01-07T15:14:48;1.60;99.90
6008;DHT22;3032;49.484;11.112;2024-01-07T15:17:13;1.90;99.90
6008;DHT22;3032;49.484;11.112;2024-01-07T15:19:42;1.70;99.90
6008;DHT22;3032;49.484;11.112;2024-01-07T15:22:07;1.60;99.90
6008;DHT22;3032;49.484;11.112;2024-01-07T15:24:33;1.60;99.90
6008;DHT22;3032;49.484;11.112;2024-01-07T15:26:59;1.50;99.90
6008;DHT22;3032;49.484;11.112;2024-01-07T15:29:25;1.40;99.90
6008;DHT22;3032;49.484;11.112;2024-01-07T15:31:50;1.20;99.90
6008;DHT22;3032;49.484;11.112;2024-01-07T15:34:16;1.30;99.90
6008;DHT22;3032;49.484;11.112;2024-01-07T15:36:41;1.30;99.90
6008;DHT22;3032;49.484;11.112;2024-01-07T15:39:07;1.40;99.90
6008;DHT22;3032;49.484;11.112;2024-01-07T15:41:35;1.30;99.90
6008;DHT22;3032;49.484;11.112;2024-01-07T15:44:01;1.20;99.90
6008;DHT22;3032;49.484;11.112;2024-01-07T15:46:27;1.20;99.90
6008;DHT22;3032;49.484;11.112;2024-01-07T15:48:53;1.20;99.90
6008;DHT22;3032;49.484;11.112;2024-01-07T15:51:19;1.30;99.90
6008;DHT22;3032;49.484;11.112;2024-01-07T15:53:44;1.30;99.90
6008;DHT22;3032;49.484;11.112;2024-01-07T15:56:10;1.50;99.90
6008;DHT22;3032;49.484;11.112;2024-01-07T15:58:35;1.20;99.90
6008;DHT22;3032;49.484;11.112;2024-01-07T16:01:02;1.30;99.90